Time;durP1;ratioP1;P1;durP2;ratioP2;P2;SDS_P1;SDS_P2;PMS_P1;PMS_P2;Temp;Humidity;BMP_temperature;BMP_pressure;BME280_temperature;BME280_humidity;BME280_pressure;Samples;Min_cycle;Max_cycle;Signal;HPM_P1;HPM_P2
2023/12/21 00:00:57;;;;;;;1.63;0.93;;;;;;;7.33;100.00;100033.22;5008383;28;20203;-73
2023/12/21 00:03:24;;;;;;;1.27;0.87;;;;;;;7.31;100.00;100034.06;5023510;28;20725;-72
2023/12/21 00:05:51;;;;;;;2.17;1.00;;;;;;;7.29;100.00;100030.50;4992368;28;20249;-73
2023/12/21 00:08:17;;;;;;;1.93;1.10;;;;;;;7.33;100.00;100027.06;4992852;28;20202;-73
2023/12/21 00:10:44;;;;;;;1.57;1.20;;;;;;;7.33;100.00;100030.59;4992386;28;20201;-73
2023/12/21 00:13:11;;;;;;;1.10;1.00;;;;;;;7.38;100.00;100014.88;4988325;28;20577;-72
2023/12/21 00:15:37;;;;;;;1.43;1.00;;;;;;;7.32;100.00;99999.84;4992905;28;20227;-73
2023/12/21 00:18:04;;;;;;;2.03;0.80;;;;;;;7.29;100.00;100001.53;5008302;28;20216;-73
2023/12/21 00:20:31;;;;;;;1.47;0.90;;;;;;;7.27;100.00;100006.78;4988471;28;20209;-73
2023/12/21 00:22:57;;;;;;;2.80;0.80;;;;;;;7.24;100.00;99998.81;4988964;28;20238;-73
2023/12/21 00:25:23;;;;;;;1.57;0.87;;;;;;;7.23;100.00;99991.78;4991677;28;20579;-72
2023/12/21 00:27:50;;;;;;;2.57;0.97;;;;;;;7.22;100.00;99997.91;4999384;28;20266;-72
2023/12/21 00:30:16;;;;;;;1.53;0.90;;;;;;;7.19;100.00;99979.38;5001867;28;20207;-72
2023/12/21 00:32:43;;;;;;;0.70;0.70;;;;;;;7.12;100.00;99975.72;4981190;28;20276;-71
2023/12/21 00:35:09;;;;;;;0.83;0.83;;;;;;;7.08;100.00;99965.09;4989514;28;20222;-73
2023/12/21 00:37:37;;;;;;;0.70;0.70;;;;;;;7.09;100.00;99970.41;5018070;28;20292;-72
2023/12/21 00:40:04;;;;;;;0.80;0.80;;;;;;;7.11;100.00;99955.53;5009683;28;20239;-73
2023/12/21 00:42:32;;;;;;;0.70;0.70;;;;;;;7.08;100.00;99959.84;4999624;28;20208;-73
2023/12/21 00:44:59;;;;;;;1.63;0.90;;;;;;;7.08;100.00;99962.47;4998930;28;20227;-72
2023/12/21 00:47:25;;;;;;;0.90;0.70;;;;;;;7.09;100.00;99954.59;5001908;28;20211;-73
2023/12/21 00:49:52;;;;;;;0.83;0.80;;;;;;;7.09;100.00;99948.44;5003954;28;20215;-72
2023/12/21 00:52:18;;;;;;;1.10;0.90;;;;;;;7.13;100.00;99947.66;5004602;28;20215;-72
2023/12/21 00:54:44;;;;;;;2.13;1.07;;;;;;;7.13;100.00;99952.91;4995958;28;20236;-73
2023/12/21 00:57:11;;;;;;;1.10;0.90;;;;;;;7.15;100.00;99957.34;4991089;28;20224;-72
2023/12/21 00:59:37;;;;;;;5.27;1.00;;;;;;;7.17;100.00;99960.00;5001910;28;20679;-72
2023/12/21 01:02:04;;;;;;;0.60;0.60;;;;;;;7.19;100.00;99953.03;4998482;28;20207;-72
2023/12/21 01:04:30;;;;;;;0.90;0.70;;;;;;;7.20;100.00;99941.63;4993288;28;20252;-73
2023/12/21 01:06:57;;;;;;;1.40;0.97;;;;;;;7.22;100.00;99947.84;5021863;28;20450;-72
2023/12/21 01:09:23;;;;;;;1.03;0.70;;;;;;;7.22;100.00;99940.84;5003810;28;20287;-72
2023/12/21 01:11:50;;;;;;;4.00;0.77;;;;;;;7.23;100.00;99945.25;4996912;28;20257;-73
2023/12/21 01:14:17;;;;;;;2.37;0.80;;;;;;;7.25;100.00;99926.84;4990388;28;20232;-72
2023/12/21 01:16:43;;;;;;;1.60;0.63;;;;;;;7.22;100.00;99917.16;4995794;28;20752;-72
2023/12/21 01:19:10;;;;;;;1.57;0.80;;;;;;;7.22;100.00;99932.94;4997544;28;20207;-73
2023/12/21 01:21:37;;;;;;;0.60;0.60;;;;;;;7.23;100.00;99911.00;4987692;28;20210;-72
2023/12/21 01:24:05;;;;;;;0.80;0.60;;;;;;;7.22;100.00;99905.72;5010584;28;20214;-71
2023/12/21 01:26:31;;;;;;;1.07;0.70;;;;;;;7.24;100.00;99898.72;4991294;28;20207;-71
2023/12/21 01:28:57;;;;;;;0.60;0.60;;;;;;;7.21;100.00;99896.94;4990317;28;20207;-70
2023/12/21 01:31:24;;;;;;;0.60;0.60;;;;;;;7.25;100.00;99887.34;4992141;28;20212;-73
2023/12/21 01:33:51;;;;;;;2.00;0.67;;;;;;;7.22;100.00;99885.53;4995527;28;20211;-72
2023/12/21 01:36:18;;;;;;;0.60;0.60;;;;;;;7.27;100.00;99882.09;4994944;28;20318;-72
2023/12/21 01:38:44;;;;;;;1.17;0.60;;;;;;;7.26;100.00;99885.59;5008390;28;20636;-72
2023/12/21 01:41:11;;;;;;;0.60;0.57;;;;;;;7.29;100.00;99875.13;4995200;28;20406;-72
2023/12/21 01:43:37;;;;;;;0.73;0.60;;;;;;;7.30;100.00;99872.50;4993297;28;20203;-73
2023/12/21 01:46:04;;;;;;;0.57;0.40;;;;;;;7.31;100.00;99878.66;4991153;28;20717;-72
2023/12/21 01:48:31;;;;;;;1.37;0.63;;;;;;;7.34;100.00;99882.22;4991964;28;20217;-73
2023/12/21 01:50:59;;;;;;;0.53;0.53;;;;;;;7.38;100.00;99873.53;4992467;28;20201;-73
2023/12/21 01:53:26;;;;;;;0.30;0.30;;;;;;;7.42;100.00;99861.28;4988933;28;20202;-73
2023/12/21 01:55:54;;;;;;;0.50;0.40;;;;;;;7.41;100.00;99852.50;4999175;28;20406;-73
2023/12/21 01:58:20;;;;;;;0.40;0.40;;;;;;;7.41;100.00;99852.50;4989450;28;20205;-73
2023/12/21 02:00:47;;;;;;;0.60;0.50;;;;;;;7.45;100.00;99843.78;4988210;28;20737;-73
2023/12/21 02:03:16;;;;;;;0.40;0.40;;;;;;;7.46;100.00;99840.28;4990104;28;20686;-73
2023/12/21 02:05:42;;;;;;;1.23;0.57;;;;;;;7.48;100.00;99843.84;5001082;28;20216;-72
2023/12/21 02:08:09;;;;;;;0.47;0.47;;;;;;;7.47;100.00;99851.72;5010345;28;20258;-72
2023/12/21 02:10:39;;;;;;;0.40;0.40;;;;;;;7.48;100.00;99842.94;4997038;28;20224;-73
2023/12/21 02:13:06;;;;;;;0.40;0.40;;;;;;;7.49;100.00;99839.44;4990400;28;20226;-73
2023/12/21 02:15:32;;;;;;;0.30;0.30;;;;;;;7.48;100.00;99835.03;4992772;28;20393;-73
2023/12/21 02:18:02;;;;;;;0.40;0.40;;;;;;;7.50;100.00;99828.06;5009426;28;20208;-72
2023/12/21 02:20:29;;;;;;;0.40;0.40;;;;;;;7.54;100.00;99824.59;4987727;28;20292;-73
2023/12/21 02:22:59;;;;;;;0.40;0.40;;;;;;;7.50;100.00;99812.25;4987830;28;20455;-73
2023/12/21 02:25:26;;;;;;;2.43;0.60;;;;;;;7.47;100.00;99788.47;5005968;28;20594;-73
2023/12/21 02:27:53;;;;;;;0.57;0.50;;;;;;;7.51;100.00;99785.03;4986077;28;20300;-73
2023/12/21 02:30:19;;;;;;;0.73;0.43;;;;;;;7.51;100.00;99787.66;4994401;28;20692;-73
2023/12/21 02:32:46;;;;;;;0.40;0.40;;;;;;;7.49;100.00;99782.38;4985082;28;20205;-72
2023/12/21 02:35:13;;;;;;;0.57;0.53;;;;;;;7.49;100.00;99781.50;4997255;28;20608;-72
2023/12/21 02:37:39;;;;;;;0.40;0.40;;;;;;;7.48;100.00;99775.34;4994618;28;20370;-73
2023/12/21 02:40:06;;;;;;;0.40;0.40;;;;;;;7.50;100.00;99776.25;4983924;28;20721;-72
2023/12/21 02:42:33;;;;;;;0.40;0.40;;;;;;;7.51;100.00;99772.75;4989301;28;20275;-73
2023/12/21 02:44:59;;;;;;;0.37;0.33;;;;;;;7.52;100.00;99761.34;4986255;28;20235;-72
2023/12/21 02:47:25;;;;;;;0.47;0.47;;;;;;;7.52;100.00;99765.72;4989577;28;20287;-72
2023/12/21 02:49:52;;;;;;;0.50;0.50;;;;;;;7.53;100.00;99778.03;4988590;28;20220;-72
2023/12/21 02:52:18;;;;;;;0.47;0.30;;;;;;;7.58;100.00;99778.09;4990370;28;20422;-72
2023/12/21 02:54:46;;;;;;;0.40;0.40;;;;;;;7.63;100.00;99769.44;4988312;28;20610;-72
2023/12/21 02:57:12;;;;;;;0.40;0.40;;;;;;;7.64;100.00;99772.97;4990846;28;20216;-72
2023/12/21 02:59:42;;;;;;;0.40;0.40;;;;;;;7.70;100.00;99762.50;4991171;28;20205;-72
2023/12/21 03:02:09;;;;;;;0.40;0.40;;;;;;;7.68;100.00;99757.22;4988286;28;20213;-72
2023/12/21 03:04:35;;;;;;;0.40;0.40;;;;;;;7.72;100.00;99751.13;4994851;28;20254;-72
2023/12/21 03:07:02;;;;;;;0.47;0.30;;;;;;;7.78;100.00;99758.22;4993579;28;20287;-72
2023/12/21 03:09:29;;;;;;;0.40;0.40;;;;;;;7.79;100.00;99752.09;4991016;28;20287;-72
2023/12/21 03:11:55;;;;;;;0.40;0.40;;;;;;;7.79;100.00;99757.34;4991267;28;20232;-72
2023/12/21 03:14:22;;;;;;;0.50;0.40;;;;;;;7.80;100.00;99751.22;4995191;28;20316;-73
2023/12/21 03:16:49;;;;;;;0.30;0.30;;;;;;;7.81;100.00;99745.97;4999829;28;20328;-72
2023/12/21 03:19:15;;;;;;;0.60;0.30;;;;;;;7.82;100.00;99723.13;5010367;28;20215;-73
2023/12/21 03:21:42;;;;;;;0.40;0.40;;;;;;;7.87;100.00;99721.44;4996713;28;20673;-73
2023/12/21 03:24:09;;;;;;;0.30;0.30;;;;;;;7.85;100.00;99723.16;4993609;28;20577;-73
2023/12/21 03:26:35;;;;;;;0.70;0.30;;;;;;;7.90;100.00;99700.38;4989589;28;20248;-73
2023/12/21 03:29:01;;;;;;;0.30;0.30;;;;;;;7.89;100.00;99692.47;4991449;28;20212;-73
2023/12/21 03:31:28;;;;;;;0.73;0.40;;;;;;;7.88;100.00;99698.59;4990118;28;20666;-73
2023/12/21 03:33:54;;;;;;;0.47;0.40;;;;;;;7.89;100.00;99690.72;4994287;28;20220;-73
2023/12/21 03:36:21;;;;;;;0.40;0.30;;;;;;;8.00;100.00;99696.09;4999681;28;20343;-72
2023/12/21 03:38:47;;;;;;;0.67;0.30;;;;;;;7.95;100.00;99672.31;4994376;28;20300;-70
2023/12/21 03:41:14;;;;;;;2.33;0.40;;;;;;;7.98;100.00;99667.09;4996804;28;20293;-73
2023/12/21 03:43:40;;;;;;;1.33;0.63;;;;;;;8.04;100.00;99663.66;4992890;28;20211;-72
2023/12/21 03:46:10;;;;;;;0.80;0.80;;;;;;;8.05;100.00;99660.16;4998003;28;20226;-73
2023/12/21 03:48:36;;;;;;;1.37;0.40;;;;;;;8.07;100.00;99653.16;4994458;28;20204;-72
2023/12/21 03:51:03;;;;;;;1.37;0.40;;;;;;;8.10;100.00;99640.00;4990685;28;20275;-72
2023/12/21 03:53:29;;;;;;;0.40;0.40;;;;;;;8.14;100.00;99632.13;4997884;28;20208;-73
2023/12/21 03:55:56;;;;;;;0.40;0.40;;;;;;;8.16;100.00;99635.69;4991386;28;20221;-73
2023/12/21 03:58:22;;;;;;;0.70;0.43;;;;;;;8.13;100.00;99651.47;4993994;28;20206;-73
2023/12/21 04:00:51;;;;;;;1.00;0.40;;;;;;;8.15;100.00;99633.91;5011658;28;20223;-70
2023/12/21 04:03:17;;;;;;;0.40;0.40;;;;;;;8.15;100.00;99651.47;5004713;28;20733;-70
2023/12/21 04:05:46;;;;;;;1.03;0.40;;;;;;;8.18;100.00;99639.22;4990300;28;20306;-71
2023/12/21 04:08:13;;;;;;;1.07;0.40;;;;;;;8.20;100.00;99644.50;4994166;28;20197;-71
2023/12/21 04:10:39;;;;;;;0.40;0.40;;;;;;;8.22;100.00;99631.31;5003669;28;20757;-71
2023/12/21 04:13:06;;;;;;;0.40;0.40;;;;;;;8.25;100.00;99620.81;4998572;28;20717;-70
2023/12/21 04:15:32;;;;;;;0.30;0.30;;;;;;;8.22;100.00;99626.06;4997769;28;20702;-70
2023/12/21 04:17:59;;;;;;;1.90;0.60;;;;;;;8.26;100.00;99619.94;4997974;28;20219;-71
2023/12/21 04:20:25;;;;;;;0.70;0.40;;;;;;;8.25;100.00;99602.34;4996081;28;20203;-71
2023/12/21 04:22:52;;;;;;;0.70;0.40;;;;;;;8.22;100.00;99591.75;4987665;28;20295;-70
2023/12/21 04:25:18;;;;;;;0.53;0.53;;;;;;;8.28;100.00;99574.25;5000569;28;20233;-70
2023/12/21 04:27:45;;;;;;;1.03;0.60;;;;;;;8.22;100.00;99570.66;4990124;28;20197;-71
2023/12/21 04:30:11;;;;;;;0.40;0.40;;;;;;;8.21;100.00;99561.88;4987478;28;20219;-71
2023/12/21 04:32:38;;;;;;;2.67;0.57;;;;;;;8.25;100.00;99578.59;4988829;28;20201;-70
2023/12/21 04:35:07;;;;;;;0.87;0.70;;;;;;;8.26;100.00;99575.09;5000351;28;20224;-71
2023/12/21 04:37:34;;;;;;;0.93;0.60;;;;;;;8.20;100.00;99551.31;4990190;28;20225;-70
2023/12/21 04:40:00;;;;;;;0.90;0.40;;;;;;;8.25;100.00;99562.78;4991205;28;20205;-71
2023/12/21 04:42:27;;;;;;;3.00;0.50;;;;;;;8.23;100.00;99557.50;5006093;28;20625;-71
2023/12/21 04:44:53;;;;;;;0.40;0.40;;;;;;;8.22;100.00;99560.13;4991470;28;20225;-71
2023/12/21 04:47:19;;;;;;;0.43;0.43;;;;;;;8.23;100.00;99553.97;4989475;28;20703;-70
2023/12/21 04:49:50;;;;;;;0.70;0.40;;;;;;;8.26;100.00;99548.72;4994248;28;20214;-71
2023/12/21 04:52:16;;;;;;;0.47;0.47;;;;;;;8.28;100.00;99531.16;5000908;28;20757;-71
2023/12/21 04:54:43;;;;;;;0.47;0.47;;;;;;;8.29;100.00;99539.06;4992584;28;20725;-71
2023/12/21 04:57:09;;;;;;;0.30;0.30;;;;;;;8.30;100.00;99532.03;4990078;28;20228;-71
2023/12/21 04:59:40;;;;;;;1.13;0.47;;;;;;;8.30;100.00;99525.00;4984070;28;20206;-71
2023/12/21 05:02:06;;;;;;;1.50;0.40;;;;;;;8.28;100.00;99517.97;4990483;28;20216;-71
2023/12/21 05:04:33;;;;;;;0.70;0.40;;;;;;;8.32;100.00;99511.84;4995280;28;20227;-71
2023/12/21 05:07:00;;;;;;;1.10;0.37;;;;;;;8.32;100.00;99503.94;4988778;28;20196;-70
2023/12/21 05:09:26;;;;;;;0.93;0.50;;;;;;;8.33;100.00;99518.88;4988312;28;20663;-71
2023/12/21 05:11:53;;;;;;;0.30;0.30;;;;;;;8.31;100.00;99512.72;4987049;28;20232;-71
2023/12/21 05:14:19;;;;;;;1.20;0.50;;;;;;;8.32;100.00;99517.13;4978620;28;20276;-71
2023/12/21 05:16:46;;;;;;;4.07;0.50;;;;;;;8.35;100.00;99503.97;4994527;28;20289;-70
2023/12/21 05:19:12;;;;;;;1.07;0.40;;;;;;;8.35;100.00;99494.31;4990544;28;20234;-71
2023/12/21 05:21:39;;;;;;;1.00;0.40;;;;;;;8.34;100.00;99494.31;4992606;28;21439;-71
2023/12/21 05:24:06;;;;;;;0.73;0.50;;;;;;;8.39;100.00;99497.84;4982723;28;20199;-71
2023/12/21 05:26:32;;;;;;;0.30;0.30;;;;;;;8.43;100.00;99500.56;5008576;28;20287;-70
2023/12/21 05:28:59;;;;;;;0.43;0.40;;;;;;;8.43;100.00;99479.44;4990340;28;20197;-73
2023/12/21 05:31:25;;;;;;;1.00;0.40;;;;;;;8.47;100.00;99462.75;4983096;28;20687;-71
2023/12/21 05:33:52;;;;;;;1.20;0.50;;;;;;;8.45;100.00;99461.88;5001339;28;20215;-73
2023/12/21 05:36:23;;;;;;;0.97;0.60;;;;;;;8.47;100.00;99464.53;4997906;28;20269;-73
2023/12/21 05:38:49;;;;;;;0.90;0.30;;;;;;;8.49;100.00;99452.22;4988238;28;20216;-73
2023/12/21 05:41:16;;;;;;;1.20;0.43;;;;;;;8.47;100.00;99432.84;4990604;28;20677;-73
2023/12/21 05:43:43;;;;;;;0.60;0.50;;;;;;;8.53;100.00;99455.75;4987543;28;20210;-71
2023/12/21 05:46:10;;;;;;;0.53;0.40;;;;;;;8.54;100.00;99446.97;4999928;28;20217;-71
2023/12/21 05:48:36;;;;;;;1.40;0.50;;;;;;;8.53;100.00;99426.72;4995643;28;20435;-71
2023/12/21 05:51:04;;;;;;;0.30;0.30;;;;;;;8.53;100.00;99437.28;4986513;28;20275;-73
2023/12/21 05:53:30;;;;;;;0.73;0.40;;;;;;;8.54;100.00;99432.00;4989578;28;20287;-72
2023/12/21 05:55:56;;;;;;;0.30;0.30;;;;;;;8.57;100.00;99432.03;4994688;23;20603;-69
2023/12/21 05:58:23;;;;;;;1.40;0.60;;;;;;;8.54;100.00;99426.75;4986601;28;20225;-70
2023/12/21 06:00:49;;;;;;;1.47;0.37;;;;;;;8.54;100.00;99426.75;4981864;28;20547;-69
2023/12/21 06:03:16;;;;;;;0.33;0.30;;;;;;;8.57;100.00;99416.19;4979866;28;20665;-70
2023/12/21 06:05:42;;;;;;;0.63;0.47;;;;;;;8.56;100.00;99410.91;4985125;28;20222;-70
2023/12/21 06:08:08;;;;;;;0.50;0.30;;;;;;;8.54;100.00;99403.00;4985003;28;20205;-70
2023/12/21 06:10:35;;;;;;;0.40;0.40;;;;;;;8.55;100.00;99403.88;4986411;28;20366;-69
2023/12/21 06:13:01;;;;;;;0.77;0.40;;;;;;;8.55;100.00;99395.94;4982532;28;20210;-70
2023/12/21 06:15:28;;;;;;;0.80;0.47;;;;;;;8.55;100.00;99388.03;4985985;28;20225;-70
2023/12/21 06:17:54;;;;;;;1.70;0.33;;;;;;;8.55;100.00;99388.91;4985740;28;20711;-70
2023/12/21 06:20:21;;;;;;;2.23;0.33;;;;;;;8.59;100.00;99380.16;4986050;28;20234;-70
2023/12/21 06:22:47;;;;;;;0.40;0.40;;;;;;;8.63;100.00;99381.03;4986193;28;20260;-69
2023/12/21 06:25:14;;;;;;;2.10;0.40;;;;;;;8.62;100.00;99385.44;4988031;28;20230;-70
2023/12/21 06:27:41;;;;;;;0.37;0.37;;;;;;;8.65;100.00;99380.16;4987516;28;20213;-69
2023/12/21 06:30:08;;;;;;;0.80;0.40;;;;;;;8.66;100.00;99370.50;4986463;28;20208;-71
2023/12/21 06:32:35;;;;;;;0.60;0.40;;;;;;;8.68;100.00;99358.19;4980948;28;20211;-70
2023/12/21 06:35:01;;;;;;;0.87;0.40;;;;;;;8.63;100.00;99350.25;4986299;28;20249;-69
2023/12/21 06:37:28;;;;;;;0.40;0.40;;;;;;;8.66;100.00;99360.81;4985107;28;20269;-71
2023/12/21 06:39:55;;;;;;;0.63;0.40;;;;;;;8.68;100.00;99352.91;4986125;28;20247;-69
2023/12/21 06:42:22;;;;;;;0.47;0.27;;;;;;;8.67;100.00;99348.50;4985621;28;20677;-71
2023/12/21 06:44:48;;;;;;;0.63;0.40;;;;;;;8.70;100.00;99352.03;4978957;28;20344;-69
2023/12/21 06:47:15;;;;;;;0.30;0.30;;;;;;;8.69;100.00;99355.56;4988532;28;20262;-69
2023/12/21 06:49:41;;;;;;;1.10;0.40;;;;;;;8.71;100.00;99351.16;4973335;28;20310;-70
2023/12/21 06:52:07;;;;;;;1.03;0.40;;;;;;;8.67;100.00;99340.59;4983519;28;20293;-70
2023/12/21 06:54:34;;;;;;;0.47;0.47;;;;;;;8.70;100.00;99346.75;4989066;28;20245;-71
2023/12/21 06:57:00;;;;;;;0.70;0.43;;;;;;;8.72;100.00;99347.63;4988431;28;20222;-70
2023/12/21 06:59:30;;;;;;;0.97;0.50;;;;;;;8.74;100.00;99345.00;4985315;28;20212;-71
2023/12/21 07:01:56;;;;;;;0.70;0.50;;;;;;;8.75;100.00;99355.56;4985765;28;20667;-70
2023/12/21 07:04:23;;;;;;;0.70;0.43;;;;;;;8.75;100.00;99341.50;4983961;28;20227;-70
2023/12/21 07:06:50;;;;;;;0.53;0.40;;;;;;;8.76;100.00;99343.25;4969111;28;20217;-70
2023/12/21 07:09:17;;;;;;;0.40;0.40;;;;;;;8.80;100.00;99355.59;4985149;28;20571;-71
2023/12/21 07:11:44;;;;;;;1.40;0.30;;;;;;;8.78;100.00;99363.50;4984035;28;20210;-71
2023/12/21 07:14:12;;;;;;;0.73;0.50;;;;;;;8.80;100.00;99363.50;4977102;28;20554;-72
2023/12/21 07:16:38;;;;;;;0.30;0.30;;;;;;;8.78;100.00;99345.03;4986893;28;20729;-71
2023/12/21 07:19:06;;;;;;;0.67;0.33;;;;;;;8.84;100.00;99349.47;4986830;28;20594;-70
2023/12/21 07:21:32;;;;;;;0.30;0.30;;;;;;;8.86;100.00;99333.63;4986625;28;20299;-69
2023/12/21 07:23:59;;;;;;;0.77;0.40;;;;;;;8.86;100.00;99333.63;4989262;28;20210;-70
2023/12/21 07:26:26;;;;;;;0.30;0.30;;;;;;;8.88;100.00;99327.47;4990017;28;20246;-71
2023/12/21 07:28:53;;;;;;;1.33;0.40;;;;;;;8.89;100.00;99312.50;5003499;28;20236;-70
2023/12/21 07:31:19;;;;;;;1.13;0.53;;;;;;;8.87;100.00;99311.63;4985567;28;20512;-70
2023/12/21 07:33:46;;;;;;;0.40;0.40;;;;;;;8.84;100.00;99316.91;4985636;28;20215;-74
2023/12/21 07:36:16;;;;;;;0.77;0.40;;;;;;;8.82;100.00;99324.81;4989905;28;20640;-71
2023/12/21 07:38:42;;;;;;;0.57;0.40;;;;;;;8.85;100.00;99309.00;4975646;28;20224;-72
2023/12/21 07:41:10;;;;;;;0.47;0.40;;;;;;;8.92;100.00;99316.03;4983986;28;20219;-72
2023/12/21 07:43:37;;;;;;;1.13;0.40;;;;;;;8.93;100.00;99298.44;4987215;28;20296;-70
2023/12/21 07:46:04;;;;;;;0.43;0.43;;;;;;;8.94;100.00;99287.88;4989238;28;20238;-71
2023/12/21 07:48:33;;;;;;;1.03;0.60;;;;;;;8.96;100.00;99286.13;4987730;28;20218;-71
2023/12/21 07:51:00;;;;;;;0.70;0.40;;;;;;;8.98;100.00;99288.75;4988603;28;20657;-70
2023/12/21 07:53:26;;;;;;;0.47;0.40;;;;;;;8.95;100.00;99299.31;4980329;28;20296;-70
2023/12/21 07:55:53;;;;;;;0.57;0.43;;;;;;;8.89;100.00;99291.41;4979318;28;20648;-70
2023/12/21 07:58:19;;;;;;;1.20;0.70;;;;;;;8.85;100.00;99276.44;4984084;28;20216;-71
2023/12/21 08:00:46;;;;;;;0.43;0.40;;;;;;;8.74;100.00;99264.06;4981972;28;20207;-70
2023/12/21 08:03:12;;;;;;;1.23;0.60;;;;;;;8.77;100.00;99276.38;4986121;28;20205;-70
2023/12/21 08:05:39;;;;;;;0.60;0.53;;;;;;;8.77;100.00;99268.47;4988466;28;20241;-70
2023/12/21 08:08:06;;;;;;;0.63;0.60;;;;;;;8.84;100.00;99262.34;4994861;28;20218;-71
2023/12/21 08:10:34;;;;;;;0.67;0.50;;;;;;;8.90;100.00;99265.00;4992876;28;20292;-70
2023/12/21 08:13:01;;;;;;;0.47;0.47;;;;;;;8.93;100.00;99258.84;4994731;28;20199;-70
2023/12/21 08:15:29;;;;;;;0.57;0.50;;;;;;;8.97;100.00;99255.31;4987314;28;21007;-70
2023/12/21 08:17:56;;;;;;;1.07;0.40;;;;;;;8.97;100.00;99240.34;4992147;28;20225;-70
2023/12/21 08:20:23;;;;;;;0.83;0.50;;;;;;;8.96;100.00;99254.44;4987067;28;20198;-70
2023/12/21 08:22:49;;;;;;;0.33;0.30;;;;;;;8.97;100.00;99256.19;4988346;28;20212;-70
2023/12/21 08:25:17;;;;;;;0.33;0.30;;;;;;;9.01;100.00;99255.31;4989582;28;20226;-71
2023/12/21 08:27:43;;;;;;;0.53;0.50;;;;;;;9.02;100.00;99249.16;4988247;28;20336;-68
2023/12/21 08:30:10;;;;;;;0.40;0.40;;;;;;;9.04;100.00;99222.75;4986124;28;20303;-71
2023/12/21 08:32:37;;;;;;;0.50;0.40;;;;;;;9.06;100.00;99227.16;4987367;28;20199;-74
2023/12/21 08:35:04;;;;;;;0.40;0.40;;;;;;;9.05;100.00;99214.84;4989790;28;20238;-72
2023/12/21 08:37:31;;;;;;;0.30;0.30;;;;;;;9.03;100.00;99203.38;4989157;28;20569;-76
2023/12/21 08:39:58;;;;;;;0.43;0.43;;;;;;;9.09;100.00;99198.09;4988634;28;20203;-75
2023/12/21 08:42:26;;;;;;;0.60;0.40;;;;;;;9.13;100.00;99198.97;4989772;28;20204;-74
2023/12/21 08:44:53;;;;;;;0.50;0.50;;;;;;;9.16;100.00;99201.63;4987819;28;20235;-72
2023/12/21 08:47:19;;;;;;;0.50;0.50;;;;;;;9.21;100.00;99197.25;4990436;28;20676;-74
2023/12/21 08:49:46;;;;;;;0.57;0.40;;;;;;;9.17;100.00;99186.66;4988086;28;20212;-75
2023/12/21 08:52:12;;;;;;;0.90;0.30;;;;;;;9.23;100.00;99182.28;4989109;28;20209;-73
2023/12/21 08:54:40;;;;;;;0.40;0.27;;;;;;;9.34;100.00;99169.94;4987593;28;20282;-73
2023/12/21 08:57:07;;;;;;;0.30;0.30;;;;;;;9.36;100.00;99160.22;4987794;28;20273;-74
2023/12/21 08:59:33;;;;;;;0.67;0.37;;;;;;;9.37;100.00;99147.91;4988765;28;20213;-74
2023/12/21 09:01:59;;;;;;;0.50;0.40;;;;;;;9.41;100.00;99136.44;4989111;28;20211;-73
2023/12/21 09:04:26;;;;;;;0.50;0.40;;;;;;;9.41;100.00;99141.72;4988605;28;20267;-74
2023/12/21 09:06:53;;;;;;;0.53;0.40;;;;;;;9.46;100.00;99120.56;4989584;28;20690;-74
2023/12/21 09:09:19;;;;;;;0.40;0.40;;;;;;;9.45;100.00;99103.84;4988999;28;20203;-74
2023/12/21 09:11:45;;;;;;;0.57;0.50;;;;;;;9.50;100.00;99098.53;4988830;28;20741;-73
2023/12/21 09:14:12;;;;;;;0.30;0.30;;;;;;;9.56;100.00;99098.50;4989217;28;20289;-72
2023/12/21 09:16:39;;;;;;;0.40;0.40;;;;;;;9.60;100.00;99080.00;4988306;28;20222;-74
2023/12/21 09:19:06;;;;;;;0.50;0.50;;;;;;;9.64;100.00;99076.47;4983275;28;20219;-73
2023/12/21 09:21:33;;;;;;;0.50;0.50;;;;;;;9.68;100.00;99088.78;4989281;28;20205;-75
2023/12/21 09:24:00;;;;;;;0.83;0.30;;;;;;;9.77;100.00;99079.94;4988365;28;20219;-74
2023/12/21 09:26:26;;;;;;;0.80;0.40;;;;;;;9.84;100.00;99073.72;4989957;28;20226;-76
2023/12/21 09:28:52;;;;;;;0.40;0.40;;;;;;;9.87;100.00;99056.97;4988080;28;20244;-74
2023/12/21 09:31:19;;;;;;;0.30;0.30;;;;;;;9.87;100.00;99036.69;4985683;28;20211;-74
2023/12/21 09:33:46;;;;;;;0.63;0.37;;;;;;;9.95;100.00;99048.09;4988088;28;20256;-75
2023/12/21 09:36:15;;;;;;;0.80;0.43;;;;;;;9.87;100.00;99041.97;4991007;28;20265;-74
2023/12/21 09:38:41;;;;;;;0.87;0.50;;;;;;;9.93;100.00;99036.66;4988095;28;20301;-74
2023/12/21 09:41:08;;;;;;;1.10;0.50;;;;;;;9.96;100.00;99044.56;4988146;28;20672;-76
2023/12/21 09:43:37;;;;;;;0.40;0.23;;;;;;;9.95;100.00;99045.44;4986625;28;20208;-75
2023/12/21 09:46:04;;;;;;;0.73;0.50;;;;;;;9.97;100.00;99030.44;4978352;28;20755;-73
2023/12/21 09:48:31;;;;;;;1.00;0.40;;;;;;;9.92;100.00;99026.97;4974162;28;20208;-71
2023/12/21 09:51:02;;;;;;;0.37;0.30;;;;;;;9.95;100.00;99018.13;4985607;28;20241;-71
2023/12/21 09:53:30;;;;;;;0.40;0.30;;;;;;;9.98;100.00;99026.91;4982667;28;20289;-73
2023/12/21 09:55:59;;;;;;;0.30;0.30;;;;;;;9.97;100.00;98997.84;4988063;28;20265;-73
2023/12/21 09:58:26;;;;;;;0.93;0.30;;;;;;;10.02;100.00;99006.66;4988299;28;20707;-70
2023/12/21 10:00:52;;;;;;;0.40;0.40;;;;;;;10.05;100.00;99006.63;4983697;28;20238;-71
2023/12/21 10:03:19;;;;;;;0.37;0.37;;;;;;;10.03;100.00;98995.19;4983534;28;20685;-71
2023/12/21 10:05:47;;;;;;;0.40;0.40;;;;;;;10.01;100.00;98976.69;4986887;28;20221;-72
2023/12/21 10:08:14;;;;;;;0.67;0.37;;;;;;;10.00;100.00;98959.03;4983439;28;20637;-72
2023/12/21 10:10:41;;;;;;;0.30;0.30;;;;;;;10.08;100.00;98956.34;4985557;28;20210;-73
2023/12/21 10:13:07;;;;;;;0.20;0.20;;;;;;;10.15;100.00;98958.03;4982786;28;20311;-74
2023/12/21 10:15:34;;;;;;;1.03;0.30;;;;;;;10.22;100.00;98938.63;4986890;28;20224;-72
2023/12/21 10:18:00;;;;;;;0.40;0.33;;;;;;;10.19;100.00;98951.84;4984619;28;20477;-71
2023/12/21 10:20:26;;;;;;;0.50;0.30;;;;;;;10.24;100.00;98941.25;4980794;28;20750;-71
2023/12/21 10:22:56;;;;;;;0.30;0.30;;;;;;;10.13;100.00;98927.22;4987103;28;20204;-71
2023/12/21 10:25:22;;;;;;;0.33;0.30;;;;;;;10.21;100.00;98951.84;4986317;28;20350;-73
2023/12/21 10:27:53;;;;;;;0.30;0.30;;;;;;;10.14;100.00;98958.06;4983105;28;20665;-71
2023/12/21 10:30:24;;;;;;;0.30;0.30;;;;;;;10.02;100.00;98940.53;4987953;28;20207;-74
2023/12/21 10:32:57;;;;;;;0.30;0.30;;;;;;;9.88;100.00;98940.63;4985537;28;20230;-72
2023/12/21 10:35:25;;;;;;;0.40;0.40;;;;;;;9.82;100.00;98937.13;4986054;28;20220;-72
2023/12/21 10:37:53;;;;;;;0.43;0.43;;;;;;;9.76;100.00;98934.53;4980883;28;20238;-71
2023/12/21 10:40:22;;;;;;;0.43;0.40;;;;;;;9.66;100.00;98937.25;4985645;28;20207;-72
2023/12/21 10:42:50;;;;;;;1.47;0.50;;;;;;;9.62;100.00;98935.53;4987092;28;20207;-71
2023/12/21 10:45:19;;;;;;;0.50;0.40;;;;;;;9.49;100.00;98936.47;4981223;28;20704;-68
2023/12/21 10:48:05;;;;;;;0.30;0.30;;;;;;;9.36;100.00;98917.16;4987062;28;20211;-71
2023/12/21 10:50:33;;;;;;;0.30;0.30;;;;;;;9.36;100.00;98908.34;4986991;28;20237;-72
2023/12/21 10:53:01;;;;;;;0.37;0.37;;;;;;;9.37;100.00;98910.13;4986621;28;20289;-72
2023/12/21 10:55:28;;;;;;;0.50;0.40;;;;;;;9.35;100.00;98894.28;4982862;28;20263;-72
2023/12/21 10:57:56;;;;;;;0.27;0.27;;;;;;;9.33;100.00;98884.59;4983921;28;20208;-71
2023/12/21 11:00:23;;;;;;;1.80;0.30;;;;;;;9.45;100.00;98878.34;4987141;28;20229;-71
2023/12/21 11:02:49;;;;;;;0.40;0.40;;;;;;;9.47;100.00;98869.53;4984149;28;20208;-71
2023/12/21 11:05:22;;;;;;;0.37;0.30;;;;;;;9.58;100.00;98865.03;4985969;28;20219;-72
2023/12/21 11:07:51;;;;;;;0.40;0.40;;;;;;;9.64;100.00;98853.56;4988363;28;20219;-71
2023/12/21 11:10:18;;;;;;;3.13;0.33;;;;;;;9.69;100.00;98852.63;4988460;28;20297;-71
2023/12/21 11:12:45;;;;;;;0.40;0.30;;;;;;;9.87;100.00;98851.59;4980209;28;20754;-70
2023/12/21 11:15:14;;;;;;;0.40;0.30;;;;;;;9.98;100.00;98849.72;4984670;28;20225;-71
2023/12/21 11:17:43;;;;;;;0.20;0.20;;;;;;;10.12;100.00;98820.53;4981547;28;20314;-71
2023/12/21 11:20:14;;;;;;;0.70;0.40;;;;;;;10.21;100.00;98835.44;4987592;28;20218;-70
2023/12/21 11:22:40;;;;;;;0.37;0.30;;;;;;;10.29;100.00;98828.31;4982134;28;20208;-70
2023/12/21 11:25:11;;;;;;;0.40;0.40;;;;;;;10.25;100.00;98813.38;4986020;28;20306;-71
2023/12/21 11:27:40;;;;;;;0.53;0.50;;;;;;;10.28;100.00;98813.31;4986052;28;20211;-70
2023/12/21 11:30:10;;;;;;;0.57;0.50;;;;;;;10.29;100.00;98809.78;4986768;28;20291;-73